createdAt,value
2024-03-12T00:00:46.373Z,87755.00
2024-03-12T00:01:46.381Z,87757.00
2024-03-12T00:02:46.344Z,87760.00
2024-03-12T00:03:46.433Z,87758.00
2024-03-12T00:04:46.371Z,87757.00
2024-03-12T00:05:46.396Z,87762.00
2024-03-12T00:06:46.555Z,87762.00
2024-03-12T00:07:46.496Z,87763.00
2024-03-12T00:08:46.585Z,87766.00
2024-03-12T00:09:46.622Z,87765.00
2024-03-12T00:10:46.659Z,87765.00
2024-03-12T00:11:46.637Z,87767.00
2024-03-12T00:12:46.715Z,87769.00
2024-03-12T00:13:46.688Z,87768.00
2024-03-12T00:14:46.719Z,87767.00
2024-03-12T00:15:46.761Z,87767.00
2024-03-12T00:16:46.741Z,87767.00
2024-03-12T00:17:46.835Z,87770.00
2024-03-12T00:18:46.887Z,87769.00
2024-03-12T00:19:46.935Z,87772.00
2024-03-12T00:20:47.181Z,87774.00
2024-03-12T00:21:47.123Z,87775.00
2024-03-12T00:22:47.272Z,87773.00
2024-03-12T00:23:47.300Z,87775.00
2024-03-12T00:24:47.410Z,87777.00
2024-03-12T00:25:47.452Z,87776.00
2024-03-12T00:26:49.158Z,87775.00
2024-03-12T00:27:47.614Z,87776.00
2024-03-12T00:28:47.573Z,87776.00
2024-03-12T00:29:47.594Z,87775.00
2024-03-12T00:30:47.627Z,87776.00
2024-03-12T00:31:47.633Z,87776.00
2024-03-12T00:32:47.682Z,87779.00
2024-03-12T00:33:47.709Z,87779.00
2024-03-12T00:34:47.688Z,87775.00
2024-03-12T00:35:47.738Z,87778.00
2024-03-12T00:36:47.840Z,87775.00
2024-03-12T00:37:47.895Z,87776.00
2024-03-12T00:38:48.052Z,87780.00
2024-03-12T00:39:48.087Z,87777.00
2024-03-12T00:40:48.141Z,87781.00
2024-03-12T00:41:48.203Z,87779.00
2024-03-12T00:42:48.308Z,87778.00
2024-03-12T00:43:48.385Z,87777.00
2024-03-12T00:44:48.428Z,87778.00
2024-03-12T00:45:48.560Z,87776.00
2024-03-12T00:46:48.514Z,87777.00
2024-03-12T00:47:48.591Z,87777.00
2024-03-12T00:48:48.660Z,87779.00
2024-03-12T00:49:48.703Z,87779.00
2024-03-12T00:50:48.777Z,87777.00
2024-03-12T00:51:48.955Z,87777.00
2024-03-12T00:52:48.948Z,87778.00
2024-03-12T00:53:49.042Z,87778.00
2024-03-12T00:54:49.135Z,87778.00
2024-03-12T00:55:49.242Z,87779.00
2024-03-12T00:56:49.296Z,87779.00
2024-03-12T00:57:49.503Z,87780.00
2024-03-12T00:58:49.476Z,87781.00
2024-03-12T00:59:49.587Z,87779.00
2024-03-12T01:00:49.705Z,87778.00
2024-03-12T01:01:49.810Z,87780.00
2024-03-12T01:02:49.867Z,87781.00
2024-03-12T01:03:49.907Z,87782.00
2024-03-12T01:04:49.925Z,87783.00
2024-03-12T01:05:49.999Z,87783.00
2024-03-12T01:06:50.160Z,87785.00
2024-03-12T01:07:50.179Z,87788.00
2024-03-12T01:08:50.218Z,87788.00
2024-03-12T01:09:50.344Z,87786.00
2024-03-12T01:10:50.313Z,87787.00
2024-03-12T01:11:50.352Z,87789.00
2024-03-12T01:12:50.475Z,87794.00
2024-03-12T01:13:50.483Z,87793.00
2024-03-12T01:14:50.510Z,87795.00
2024-03-12T01:15:50.623Z,87796.00
2024-03-12T01:16:50.672Z,87798.00
2024-03-12T01:17:50.741Z,87796.00
2024-03-12T01:18:50.822Z,87798.00
2024-03-12T01:19:50.826Z,87795.00
2024-03-12T01:20:50.909Z,87796.00
2024-03-12T01:21:50.991Z,87799.00
2024-03-12T01:22:50.985Z,87798.00
2024-03-12T01:23:51.056Z,87800.00
2024-03-12T01:24:51.159Z,87802.00
2024-03-12T01:25:51.189Z,87804.00
2024-03-12T01:26:51.244Z,87802.00
2024-03-12T01:27:51.343Z,87802.00
2024-03-12T01:28:51.422Z,87801.00
2024-03-12T01:29:51.481Z,87801.00
2024-03-12T01:30:51.567Z,87802.00
2024-03-12T01:31:51.610Z,87799.00
2024-03-12T01:32:51.722Z,87799.00
2024-03-12T01:33:51.913Z,87801.00
2024-03-12T01:34:51.794Z,87800.00
2024-03-12T01:35:51.815Z,87800.00
2024-03-12T01:36:51.902Z,87800.00
2024-03-12T01:37:51.854Z,87802.00
2024-03-12T01:38:51.863Z,87803.00
2024-03-12T01:39:51.902Z,87806.00
2024-03-12T01:40:51.894Z,87807.00
2024-03-12T01:41:51.912Z,87806.00
2024-03-12T01:42:52.011Z,87804.00
2024-03-12T01:43:51.966Z,87805.00
2024-03-12T01:44:52.014Z,87804.00
2024-03-12T01:45:52.147Z,87808.00
2024-03-12T01:46:52.176Z,87809.00
2024-03-12T01:47:52.317Z,87813.00
2024-03-12T01:48:52.412Z,87813.00
2024-03-12T01:49:52.463Z,87814.00
2024-03-12T01:50:52.472Z,87815.00
2024-03-12T01:51:52.529Z,87817.00
2024-03-12T01:52:52.518Z,87817.00
2024-03-12T01:53:52.544Z,87818.00
2024-03-12T01:54:52.577Z,87818.00
2024-03-12T01:55:52.605Z,87820.00
2024-03-12T01:56:52.628Z,87819.00
2024-03-12T01:57:52.711Z,87820.00
2024-03-12T01:58:52.678Z,87823.00
2024-03-12T01:59:52.681Z,87827.00
2024-03-12T02:00:52.757Z,87828.00
2024-03-12T02:01:52.812Z,87831.00
2024-03-12T02:02:52.809Z,87832.00
2024-03-12T02:03:52.923Z,87830.00
2024-03-12T02:04:52.894Z,87833.00
2024-03-12T02:05:52.970Z,87840.00
2024-03-12T02:06:53.060Z,87841.00
2024-03-12T02:07:53.156Z,87845.00
2024-03-12T02:08:53.192Z,87845.00
2024-03-12T02:09:53.311Z,87846.00
2024-03-12T02:10:53.428Z,87848.00
2024-03-12T02:11:53.456Z,87848.00
2024-03-12T02:12:53.635Z,87847.00
2024-03-12T02:13:53.669Z,87851.00
2024-03-12T02:14:53.740Z,87850.00
2024-03-12T02:15:53.866Z,87850.00
2024-03-12T02:16:53.876Z,87850.00
2024-03-12T02:17:54.149Z,87851.00
2024-03-12T02:18:54.013Z,87853.00
2024-03-12T02:19:54.027Z,87852.00
2024-03-12T02:20:54.105Z,87854.00
2024-03-12T02:21:54.200Z,87852.00
2024-03-12T02:22:54.222Z,87852.00
2024-03-12T02:23:54.287Z,87852.00
2024-03-12T02:24:54.371Z,87856.00
2024-03-12T02:25:54.364Z,87856.00
2024-03-12T02:26:54.402Z,87855.00
2024-03-12T02:27:54.784Z,87855.00
2024-03-12T02:28:54.438Z,87855.00
2024-03-12T02:29:54.547Z,87856.00
2024-03-12T02:30:54.530Z,87855.00
2024-03-12T02:31:54.511Z,87857.00
2024-03-12T02:32:54.554Z,87860.00
2024-03-12T02:33:54.590Z,87858.00
2024-03-12T02:34:54.576Z,87856.00
2024-03-12T02:35:54.613Z,87856.00
2024-03-12T02:36:54.655Z,87855.00
2024-03-12T02:37:54.652Z,87856.00
2024-03-12T02:38:54.666Z,87860.00
2024-03-12T02:39:54.727Z,87857.00
2024-03-12T02:40:54.741Z,87858.00
2024-03-12T02:41:54.738Z,87858.00
2024-03-12T02:42:54.812Z,87856.00
2024-03-12T02:43:54.772Z,87857.00
2024-03-12T02:44:54.801Z,87854.00
2024-03-12T02:45:54.873Z,87855.00
2024-03-12T02:46:54.878Z,87853.00
2024-03-12T02:47:54.873Z,87855.00
2024-03-12T02:48:54.982Z,87853.00
2024-03-12T02:49:54.902Z,87856.00
2024-03-12T02:50:54.953Z,87855.00
2024-03-12T02:51:54.998Z,87854.00
2024-03-12T02:52:54.980Z,87853.00
2024-03-12T02:53:54.999Z,87853.00
2024-03-12T02:54:55.101Z,87854.00
2024-03-12T02:55:55.052Z,87852.00
2024-03-12T02:56:55.105Z,87854.00
2024-03-12T02:57:55.175Z,87854.00
2024-03-12T02:58:55.157Z,87853.00
2024-03-12T02:59:55.140Z,87857.00
2024-03-12T03:00:55.361Z,87857.00
2024-03-12T03:01:55.265Z,87856.00
2024-03-12T03:02:55.205Z,87854.00
2024-03-12T03:03:55.281Z,87855.00
2024-03-12T03:04:55.247Z,87856.00
2024-03-12T03:05:55.261Z,87854.00
2024-03-12T03:06:55.310Z,87853.00
2024-03-12T03:07:55.291Z,87854.00
2024-03-12T03:08:55.357Z,87852.00
2024-03-12T03:09:55.362Z,87853.00
2024-03-12T03:10:55.413Z,87851.00
2024-03-12T03:11:55.385Z,87849.00
2024-03-12T03:12:55.451Z,87848.00
2024-03-12T03:13:55.426Z,87850.00
2024-03-12T03:14:55.472Z,87854.00
2024-03-12T03:15:55.514Z,87857.00
2024-03-12T03:16:55.591Z,87859.00
2024-03-12T03:17:55.542Z,87858.00
2024-03-12T03:18:55.568Z,87859.00
2024-03-12T03:19:55.561Z,87861.00
2024-03-12T03:20:55.571Z,87862.00
2024-03-12T03:21:55.657Z,87861.00
2024-03-12T03:22:55.624Z,87861.00
2024-03-12T03:23:55.678Z,87865.00
2024-03-12T03:24:55.748Z,87868.00
2024-03-12T03:25:55.758Z,87869.00
2024-03-12T03:26:55.814Z,87871.00
2024-03-12T03:27:55.846Z,87869.00
2024-03-12T03:28:55.837Z,87868.00
2024-03-12T03:29:55.861Z,87869.00
2024-03-12T03:30:55.958Z,87871.00
2024-03-12T03:31:55.911Z,87872.00
2024-03-12T03:32:56.000Z,87876.00
2024-03-12T03:33:55.997Z,87874.00
2024-03-12T03:34:55.973Z,87879.00
2024-03-12T03:35:56.003Z,87878.00
2024-03-12T03:36:56.034Z,87875.00
2024-03-12T03:37:56.046Z,87875.00
2024-03-12T03:38:56.068Z,87873.00
2024-03-12T03:39:56.133Z,87873.00
2024-03-12T03:40:56.115Z,87874.00
2024-03-12T03:41:56.324Z,87876.00
2024-03-12T03:42:56.185Z,87878.00
2024-03-12T03:43:56.175Z,87877.00
2024-03-12T03:44:56.207Z,87881.00
2024-03-12T03:45:56.231Z,87880.00
2024-03-12T03:46:56.239Z,87876.00
2024-03-12T03:47:56.285Z,87877.00
2024-03-12T03:48:56.294Z,87880.00
2024-03-12T03:49:56.303Z,87878.00
2024-03-12T03:50:56.324Z,87880.00
2024-03-12T03:51:56.375Z,87879.00
2024-03-12T03:52:56.371Z,87881.00
2024-03-12T03:53:56.393Z,87882.00
2024-03-12T03:54:56.442Z,87884.00
2024-03-12T03:55:56.438Z,87885.00
2024-03-12T03:56:56.457Z,87885.00
2024-03-12T03:57:56.512Z,87883.00
2024-03-12T03:58:56.488Z,87883.00
2024-03-12T03:59:56.507Z,87884.00
2024-03-12T04:00:56.598Z,87883.00
2024-03-12T04:01:56.600Z,87883.00
2024-03-12T04:02:56.565Z,87883.00
2024-03-12T04:03:56.638Z,87885.00
2024-03-12T04:04:56.618Z,87884.00
2024-03-12T04:05:56.638Z,87882.00
2024-03-12T04:06:56.698Z,87882.00
2024-03-12T04:07:56.694Z,87882.00
2024-03-12T04:08:56.726Z,87883.00
2024-03-12T04:09:56.752Z,87882.00
2024-03-12T04:10:56.840Z,87885.00
2024-03-12T04:11:56.789Z,87888.00
2024-03-12T04:12:56.839Z,87886.00
2024-03-12T04:13:56.823Z,87885.00
2024-03-12T04:14:56.860Z,87887.00
2024-03-12T04:15:56.893Z,87886.00
2024-03-12T04:16:56.893Z,87886.00
2024-03-12T04:17:56.964Z,87888.00
2024-03-12T04:18:56.964Z,87885.00
2024-03-12T04:19:56.972Z,87889.00
2024-03-12T04:20:56.997Z,87890.00
2024-03-12T04:21:57.085Z,87891.00
2024-03-12T04:22:57.214Z,87890.00
2024-03-12T04:23:57.073Z,87895.00
2024-03-12T04:24:57.132Z,87893.00
2024-03-12T04:25:57.130Z,87893.00
2024-03-12T04:26:57.157Z,87895.00
2024-03-12T04:28:04.448Z,87897.00
2024-03-12T04:29:04.415Z,87898.00
2024-03-12T04:30:04.415Z,87901.00
2024-03-12T04:31:11.706Z,87899.00
2024-03-12T04:32:11.678Z,87901.00
2024-03-12T04:33:11.769Z,87900.00
2024-03-12T04:34:11.760Z,87901.00
2024-03-12T04:35:11.829Z,87901.00
2024-03-12T04:36:11.732Z,87901.00
2024-03-12T04:37:11.835Z,87899.00
2024-03-12T04:38:13.940Z,87901.00
2024-03-12T04:39:11.786Z,87900.00
2024-03-12T04:40:11.906Z,87901.00
2024-03-12T04:41:11.801Z,87900.00
2024-03-12T04:42:11.818Z,87901.00
2024-03-12T04:43:11.881Z,87902.00
2024-03-12T04:44:11.849Z,87903.00
2024-03-12T04:45:11.857Z,87907.00
2024-03-12T04:46:11.989Z,87906.00
2024-03-12T04:47:11.874Z,87906.00
2024-03-12T04:48:11.932Z,87907.00
2024-03-12T04:49:12.064Z,87908.00
2024-03-12T04:50:12.028Z,87909.00
2024-03-12T04:51:12.214Z,87911.00
2024-03-12T04:52:12.221Z,87913.00
2024-03-12T04:53:12.263Z,87914.00
2024-03-12T04:54:12.334Z,87914.00
2024-03-12T04:55:12.433Z,87917.00
2024-03-12T04:56:12.518Z,87918.00
2024-03-12T04:57:12.582Z,87916.00
2024-03-12T04:58:12.659Z,87917.00
2024-03-12T04:59:12.707Z,87917.00
2024-03-12T05:00:12.836Z,87917.00
2024-03-12T05:01:12.968Z,87921.00
2024-03-12T05:02:12.958Z,87921.00
2024-03-12T05:03:12.997Z,87923.00
2024-03-12T05:04:18.765Z,87925.00
2024-03-12T05:05:13.995Z,87925.00
2024-03-12T05:06:13.012Z,87926.00
2024-03-12T05:07:13.164Z,87924.00
2024-03-12T05:08:13.049Z,87926.00
2024-03-12T05:09:13.072Z,87929.00
2024-03-12T05:10:13.343Z,87931.00
2024-03-12T05:11:13.166Z,87934.00
2024-03-12T05:12:13.118Z,87932.00
2024-03-12T05:13:13.262Z,87934.00
2024-03-12T05:14:13.207Z,87933.00
2024-03-12T05:15:13.227Z,87932.00
2024-03-12T05:16:13.309Z,87932.00
2024-03-12T05:17:13.251Z,87937.00
2024-03-12T05:18:13.283Z,87938.00
2024-03-12T05:19:13.623Z,87940.00
2024-03-12T05:20:13.295Z,87943.00
2024-03-12T05:21:13.310Z,87945.00
2024-03-12T05:22:13.441Z,87945.00
2024-03-12T05:23:13.354Z,87948.00
2024-03-12T05:24:13.360Z,87948.00
2024-03-12T05:25:13.403Z,87949.00
2024-03-12T05:26:13.380Z,87950.00
2024-03-12T05:27:13.394Z,87951.00
2024-03-12T05:28:13.667Z,87955.00
2024-03-12T05:29:13.548Z,87957.00
2024-03-12T05:30:13.596Z,87960.00
2024-03-12T05:31:13.727Z,87961.00
2024-03-12T05:32:13.708Z,87964.00
2024-03-12T05:33:13.780Z,87966.00
2024-03-12T05:34:13.858Z,87968.00
2024-03-12T05:35:13.814Z,87968.00
2024-03-12T05:36:13.856Z,87969.00
2024-03-12T05:37:14.056Z,87968.00
2024-03-12T05:38:13.960Z,87967.00
2024-03-12T05:39:13.999Z,87965.00
2024-03-12T05:40:14.246Z,87965.00
2024-03-12T05:41:14.113Z,87966.00
2024-03-12T05:42:14.189Z,87968.00
2024-03-12T05:43:14.260Z,87971.00
2024-03-12T05:44:14.225Z,87971.00
2024-03-12T05:45:14.233Z,87972.00
2024-03-12T05:46:14.379Z,87971.00
2024-03-12T05:47:14.256Z,87971.00
2024-03-12T05:48:14.257Z,87969.00
2024-03-12T05:49:14.437Z,87970.00
2024-03-12T05:50:14.287Z,87971.00
2024-03-12T05:51:14.292Z,87969.00
2024-03-12T05:52:14.380Z,87970.00
2024-03-12T05:53:14.331Z,87973.00
2024-03-12T05:54:14.338Z,87977.00
2024-03-12T05:55:14.423Z,87979.00
2024-03-12T05:56:16.948Z,87980.00
2024-03-12T05:57:14.389Z,87982.00
2024-03-12T05:58:14.433Z,87984.00
2024-03-12T05:59:14.413Z,87985.00
2024-03-12T06:00:14.387Z,87986.00
2024-03-12T06:01:14.847Z,87985.00
2024-03-12T06:02:14.447Z,87986.00
2024-03-12T06:03:14.427Z,87990.00
2024-03-12T06:04:14.545Z,87989.00
2024-03-12T06:05:14.561Z,87993.00
2024-03-12T06:06:14.554Z,87993.00
2024-03-12T06:07:15.825Z,87992.00
2024-03-12T06:08:14.464Z,87990.00
2024-03-12T06:09:14.487Z,87986.00
2024-03-12T06:10:14.598Z,87989.00
2024-03-12T06:11:14.544Z,87990.00
2024-03-12T06:12:14.517Z,87996.00
2024-03-12T06:13:14.590Z,87995.00
2024-03-12T06:14:14.535Z,87993.00
2024-03-12T06:15:14.539Z,87995.00
2024-03-12T06:16:14.704Z,87997.00
2024-03-12T06:17:14.555Z,87998.00
2024-03-12T06:18:14.572Z,87998.00
2024-03-12T06:19:14.704Z,88002.00
2024-03-12T06:20:14.602Z,88003.00
2024-03-12T06:21:14.613Z,88002.00
2024-03-12T06:22:14.695Z,88004.00
2024-03-12T06:23:14.649Z,88004.00
2024-03-12T06:24:14.648Z,88006.00
2024-03-12T06:25:14.719Z,88009.00
2024-03-12T06:26:14.693Z,88011.00
2024-03-12T06:27:14.700Z,88014.00
2024-03-12T06:28:14.775Z,88014.00
2024-03-12T06:29:14.731Z,88013.00
2024-03-12T06:30:14.807Z,88012.00
2024-03-12T06:31:14.943Z,88017.00
2024-03-12T06:32:14.946Z,88016.00
2024-03-12T06:33:15.025Z,88019.00
2024-03-12T06:34:15.092Z,88022.00
2024-03-12T06:35:15.024Z,88024.00
2024-03-12T06:36:14.975Z,88027.00
2024-03-12T06:37:15.029Z,88026.00
2024-03-12T06:38:15.006Z,88026.00
2024-03-12T06:39:15.145Z,88032.00
2024-03-12T06:40:15.487Z,88032.00
2024-03-12T06:41:15.189Z,88030.00
2024-03-12T06:42:15.235Z,88033.00
2024-03-12T06:43:15.583Z,88035.00
2024-03-12T06:44:15.354Z,88036.00
2024-03-12T06:45:15.424Z,88037.00
2024-03-12T06:46:15.511Z,88040.00
2024-03-12T06:47:15.551Z,88041.00
2024-03-12T06:48:15.623Z,88042.00
2024-03-12T06:49:15.660Z,88044.00
2024-03-12T06:50:15.684Z,88045.00
2024-03-12T06:51:15.702Z,88046.00
2024-03-12T06:52:15.819Z,88043.00
2024-03-12T06:53:15.902Z,88043.00
2024-03-12T06:54:15.833Z,88041.00
2024-03-12T06:55:17.316Z,88044.00
2024-03-12T06:56:15.993Z,88045.00
2024-03-12T06:57:16.105Z,88043.00
2024-03-12T06:58:16.127Z,88043.00
2024-03-12T06:59:16.111Z,88046.00
2024-03-12T07:00:16.133Z,88048.00
2024-03-12T07:01:16.153Z,88049.00
2024-03-12T07:02:16.231Z,88049.00
2024-03-12T07:03:16.191Z,88051.00
2024-03-12T07:04:16.236Z,88047.00
2024-03-12T07:05:16.210Z,88051.00
2024-03-12T07:06:16.282Z,88050.00
2024-03-12T07:07:16.320Z,88054.00
2024-03-12T07:08:16.256Z,88054.00
2024-03-12T07:09:16.272Z,88055.00
2024-03-12T07:10:16.329Z,88058.00
2024-03-12T07:11:16.325Z,88057.00
2024-03-12T07:12:16.335Z,88060.00
2024-03-12T07:13:16.443Z,88063.00
2024-03-12T07:14:16.421Z,88062.00
2024-03-12T07:15:16.490Z,88062.00
2024-03-12T07:16:16.632Z,88064.00
2024-03-12T07:17:16.572Z,88066.00
2024-03-12T07:18:16.604Z,88069.00
2024-03-12T07:19:16.660Z,88070.00
2024-03-12T07:20:16.758Z,88070.00
2024-03-12T07:21:16.586Z,88069.00
2024-03-12T07:22:16.620Z,88071.00
2024-03-12T07:23:16.623Z,88069.00
2024-03-12T07:24:16.633Z,88071.00
2024-03-12T07:25:16.705Z,88072.00
2024-03-12T07:26:16.646Z,88076.00
2024-03-12T07:27:16.641Z,88072.00
2024-03-12T07:28:17.430Z,88073.00
2024-03-12T07:29:16.685Z,88072.00
2024-03-12T07:30:16.670Z,88070.00
2024-03-12T07:31:16.761Z,88074.00
2024-03-12T07:32:16.738Z,88073.00
2024-03-12T07:33:16.732Z,88072.00
2024-03-12T07:34:18.650Z,88073.00
2024-03-12T07:35:16.733Z,88074.00
2024-03-12T07:36:16.749Z,88074.00
2024-03-12T07:37:16.792Z,88073.00
2024-03-12T07:38:16.781Z,88073.00
2024-03-12T07:39:16.807Z,88073.00
2024-03-12T07:40:17.368Z,88072.00
2024-03-12T07:41:16.817Z,88074.00
2024-03-12T07:42:16.829Z,88075.00
2024-03-12T07:43:16.911Z,88079.00
2024-03-12T07:44:16.853Z,88076.00
2024-03-12T07:45:16.863Z,88080.00
2024-03-12T07:46:16.913Z,88080.00
2024-03-12T07:47:16.920Z,88080.00
2024-03-12T07:48:17.137Z,88082.00
2024-03-12T07:49:17.061Z,88087.00
2024-03-12T07:50:17.016Z,88083.00
2024-03-12T07:51:17.131Z,88084.00
2024-03-12T07:52:17.139Z,88085.00
2024-03-12T07:53:17.083Z,88085.00
2024-03-12T07:54:17.092Z,88089.00
2024-03-12T07:55:17.172Z,88091.00
2024-03-12T07:56:17.226Z,88090.00
2024-03-12T07:57:18.856Z,88089.00
2024-03-12T07:58:17.204Z,88089.00
2024-03-12T07:59:17.229Z,88090.00
2024-03-12T08:00:17.262Z,88094.00
2024-03-12T08:01:17.279Z,88094.00
2024-03-12T08:02:17.278Z,88097.00
2024-03-12T08:03:17.281Z,88098.00
2024-03-12T08:04:17.467Z,88099.00
2024-03-12T08:05:17.366Z,88092.00
2024-03-12T08:06:17.359Z,88096.00
2024-03-12T08:07:17.453Z,88095.00
2024-03-12T08:08:17.411Z,88099.00
2024-03-12T08:09:17.449Z,88105.00
2024-03-12T08:10:17.562Z,88107.00
2024-03-12T08:11:17.499Z,88108.00
2024-03-12T08:12:17.925Z,88109.00
2024-03-12T08:13:17.571Z,88114.00
2024-03-12T08:14:17.573Z,88114.00
2024-03-12T08:15:17.597Z,88111.00
2024-03-12T08:16:17.677Z,88113.00
2024-03-12T08:17:17.648Z,88114.00
2024-03-12T08:18:21.588Z,88112.00
2024-03-12T08:19:17.824Z,88114.00
2024-03-12T08:20:17.755Z,88113.00
2024-03-12T08:21:17.783Z,88114.00
2024-03-12T08:22:17.829Z,88118.00
2024-03-12T08:23:17.795Z,88118.00
2024-03-12T08:24:17.838Z,88119.00
2024-03-12T08:25:20.470Z,88119.00
2024-03-12T08:26:17.877Z,88119.00
2024-03-12T08:27:17.895Z,88123.00
2024-03-12T08:28:18.007Z,88124.00
2024-03-12T08:29:17.940Z,88124.00
2024-03-12T08:30:17.949Z,88123.00
2024-03-12T08:31:28.231Z,88128.00
2024-03-12T08:32:19.016Z,88127.00
2024-03-12T08:33:18.048Z,88127.00
2024-03-12T08:34:18.124Z,88128.00
2024-03-12T08:35:18.061Z,88132.00
2024-03-12T08:36:18.087Z,88130.00
2024-03-12T08:37:18.134Z,88135.00
2024-03-12T08:38:18.147Z,88137.00
2024-03-12T08:39:18.196Z,88135.00
2024-03-12T08:40:18.268Z,88136.00
2024-03-12T08:41:18.206Z,88137.00
2024-03-12T08:42:18.236Z,88138.00
2024-03-12T08:43:18.283Z,88136.00
2024-03-12T08:44:18.304Z,88139.00
2024-03-12T08:45:21.328Z,88140.00
2024-03-12T08:46:18.406Z,88140.00
2024-03-12T08:47:18.436Z,88144.00
2024-03-12T08:48:18.452Z,88147.00
2024-03-12T08:49:18.543Z,88147.00
2024-03-12T08:50:18.672Z,88146.00
2024-03-12T08:51:18.545Z,88148.00
2024-03-12T08:52:18.644Z,88149.00
2024-03-12T08:53:18.605Z,88148.00
2024-03-12T08:54:18.649Z,88153.00
2024-03-12T08:55:18.771Z,88155.00
2024-03-12T08:56:18.736Z,88151.00
2024-03-12T08:57:18.770Z,88151.00
2024-03-12T08:58:18.847Z,88150.00
2024-03-12T08:59:18.830Z,88155.00
2024-03-12T09:00:18.885Z,88153.00
2024-03-12T09:01:19.067Z,88153.00
2024-03-12T09:02:18.939Z,88153.00
2024-03-12T09:03:18.981Z,88153.00
2024-03-12T09:04:19.194Z,88157.00
2024-03-12T09:05:19.021Z,88154.00
2024-03-12T09:06:19.045Z,88160.00
2024-03-12T09:07:19.136Z,88160.00
2024-03-12T09:08:19.130Z,88161.00
2024-03-12T09:09:19.220Z,88165.00
2024-03-12T09:10:19.341Z,88167.00
2024-03-12T09:11:19.427Z,88169.00
2024-03-12T09:12:19.386Z,88167.00
2024-03-12T09:13:19.443Z,88166.00
2024-03-12T09:14:19.494Z,88165.00
2024-03-12T09:15:20.650Z,88166.00
2024-03-12T09:16:19.667Z,88167.00
2024-03-12T09:17:19.689Z,88166.00
2024-03-12T09:18:21.371Z,88164.00
2024-03-12T09:19:19.774Z,88168.00
2024-03-12T09:20:19.739Z,88168.00
2024-03-12T09:21:19.927Z,88168.00
2024-03-12T09:22:19.804Z,88171.00
2024-03-12T09:23:19.781Z,88171.00
2024-03-12T09:24:19.809Z,88172.00
2024-03-12T09:25:20.007Z,88170.00
2024-03-12T09:26:19.821Z,88174.00
2024-03-12T09:27:19.833Z,88173.00
2024-03-12T09:28:19.925Z,88174.00
2024-03-12T09:29:19.869Z,88177.00
2024-03-12T09:30:19.877Z,88175.00
2024-03-12T09:31:20.210Z,88172.00
2024-03-12T09:32:19.904Z,88174.00
2024-03-12T09:33:19.910Z,88174.00
2024-03-12T09:34:19.987Z,88173.00
2024-03-12T09:35:19.947Z,88172.00
2024-03-12T09:36:19.949Z,88172.00
2024-03-12T09:37:19.978Z,88171.00
2024-03-12T09:38:19.997Z,88172.00
2024-03-12T09:39:19.995Z,88175.00
2024-03-12T09:40:20.059Z,88174.00
2024-03-12T09:41:20.022Z,88177.00
2024-03-12T09:42:20.016Z,88176.00
2024-03-12T09:43:20.087Z,88171.00
2024-03-12T09:44:20.046Z,88174.00
2024-03-12T09:45:20.087Z,88177.00
2024-03-12T09:46:20.063Z,88178.00
2024-03-12T09:47:20.048Z,88179.00
2024-03-12T09:48:20.062Z,88181.00
2024-03-12T09:49:20.117Z,88182.00
2024-03-12T09:50:20.070Z,88182.00
2024-03-12T09:51:20.091Z,88177.00
2024-03-12T09:52:20.143Z,88177.00
2024-03-12T09:53:20.117Z,88180.00
2024-03-12T09:54:20.130Z,88180.00
2024-03-12T09:55:20.176Z,88179.00
2024-03-12T09:56:20.173Z,88176.00
2024-03-12T09:57:20.152Z,88177.00
2024-03-12T09:58:20.243Z,88179.00
2024-03-12T09:59:20.329Z,88176.00
2024-03-12T10:00:20.729Z,88177.00
2024-03-12T10:01:20.490Z,88175.00
2024-03-12T10:02:20.486Z,88175.00
2024-03-12T10:03:20.486Z,88172.00
2024-03-12T10:04:20.507Z,88169.00
2024-03-12T10:05:20.474Z,88169.00
2024-03-12T10:06:20.482Z,88170.00
2024-03-12T10:07:20.542Z,88169.00
2024-03-12T10:08:20.540Z,88169.00
2024-03-12T10:09:20.517Z,88169.00
2024-03-12T10:10:20.709Z,88172.00
2024-03-12T10:11:20.656Z,88171.00
2024-03-12T10:12:20.550Z,88173.00
2024-03-12T10:13:20.626Z,88176.00
2024-03-12T10:14:20.583Z,88176.00
2024-03-12T10:15:20.612Z,88176.00
2024-03-12T10:16:20.654Z,88184.00
2024-03-12T10:17:20.717Z,88176.00
2024-03-12T10:18:20.816Z,88176.00
2024-03-12T10:19:20.953Z,88174.00
2024-03-12T10:20:20.936Z,88171.00
2024-03-12T10:21:21.002Z,88178.00
2024-03-12T10:22:21.097Z,88175.00
2024-03-12T10:23:21.142Z,88175.00
2024-03-12T10:24:21.210Z,88178.00
2024-03-12T10:25:21.294Z,88173.00
2024-03-12T10:26:21.315Z,88171.00
2024-03-12T10:27:21.360Z,88171.00
2024-03-12T10:28:21.435Z,88167.00
2024-03-12T10:29:21.470Z,88172.00
2024-03-12T10:30:21.507Z,88172.00
2024-03-12T10:31:21.648Z,88174.00
2024-03-12T10:32:21.539Z,88180.00
2024-03-12T10:33:21.547Z,88173.00
2024-03-12T10:34:22.041Z,88176.00
2024-03-12T10:35:21.551Z,88177.00
2024-03-12T10:36:21.554Z,88177.00
2024-03-12T10:37:21.592Z,88178.00
2024-03-12T10:38:21.565Z,88181.00
2024-03-12T10:39:21.613Z,88177.00
2024-03-12T10:40:21.765Z,88177.00
2024-03-12T10:41:22.898Z,88180.00
2024-03-12T10:42:21.570Z,88176.00
2024-03-12T10:43:22.408Z,88173.00
2024-03-12T10:44:21.606Z,88173.00
2024-03-12T10:45:21.600Z,88171.00
2024-03-12T10:46:21.669Z,88170.00
2024-03-12T10:47:21.621Z,88165.00
2024-03-12T10:48:21.696Z,88163.00
2024-03-12T10:49:22.200Z,88162.00
2024-03-12T10:50:21.665Z,88163.00
2024-03-12T10:51:21.673Z,88167.00
2024-03-12T10:52:21.712Z,88161.00
2024-03-12T10:53:21.700Z,88163.00
2024-03-12T10:54:21.719Z,88165.00
2024-03-12T10:55:21.735Z,88167.00
2024-03-12T10:56:21.753Z,88161.00
2024-03-12T10:57:21.763Z,88163.00
2024-03-12T10:58:21.802Z,88163.00
2024-03-12T10:59:21.770Z,88162.00
2024-03-12T11:00:21.814Z,88165.00
2024-03-12T11:01:22.016Z,88163.00
2024-03-12T11:02:21.852Z,88161.00
2024-03-12T11:03:21.879Z,88165.00
2024-03-12T11:04:21.911Z,88161.00
2024-03-12T11:05:21.907Z,88162.00
2024-03-12T11:06:21.912Z,88166.00
2024-03-12T11:07:21.942Z,88163.00
2024-03-12T11:08:21.918Z,88165.00
2024-03-12T11:09:21.921Z,88164.00
2024-03-12T11:10:21.977Z,88163.00
2024-03-12T11:11:21.981Z,88160.00
2024-03-12T11:12:21.925Z,88159.00
2024-03-12T11:13:22.086Z,88159.00
2024-03-12T11:14:21.976Z,88162.00
2024-03-12T11:15:21.951Z,88162.00
2024-03-12T11:16:22.140Z,88162.00
2024-03-12T11:17:21.955Z,88161.00
2024-03-12T11:18:21.945Z,88164.00
2024-03-12T11:19:22.136Z,88165.00
2024-03-12T11:20:24.042Z,88165.00
2024-03-12T11:21:21.969Z,88166.00
2024-03-12T11:22:22.029Z,88166.00
2024-03-12T11:23:21.963Z,88167.00
2024-03-12T11:24:21.981Z,88166.00
2024-03-12T11:25:22.007Z,88167.00
2024-03-12T11:27:22.050Z,88168.00
2024-03-12T11:28:22.393Z,88168.00
2024-03-12T11:29:22.016Z,88167.00
2024-03-12T11:30:22.025Z,88168.00
2024-03-12T11:31:22.073Z,88168.00
2024-03-12T11:32:22.038Z,88168.00
2024-03-12T11:33:22.036Z,88169.00
2024-03-12T11:34:22.065Z,88170.00
2024-03-12T11:35:22.072Z,88168.00
2024-03-12T11:36:22.110Z,88173.00
2024-03-12T11:37:22.154Z,88171.00
2024-03-12T11:38:22.141Z,88174.00
2024-03-12T11:39:22.150Z,88175.00
2024-03-12T11:40:22.151Z,88169.00
2024-03-12T11:41:22.164Z,88170.00
2024-03-12T11:42:22.166Z,88173.00
2024-03-12T11:43:22.200Z,88170.00
2024-03-12T11:44:22.189Z,88167.00
2024-03-12T11:45:22.224Z,88169.00
2024-03-12T11:46:22.417Z,88170.00